sensor_id;sensor_type;location;lat;lon;timestamp;temperature;humidity
54006;DHT22;39919;38.160;-122.260;2023-07-16T00:00:30;31.40;50.60
54006;DHT22;39919;38.160;-122.260;2023-07-16T00:03:02;31.40;50.40
54006;DHT22;39919;38.160;-122.260;2023-07-16T00:05:31;31.40;50.50
54006;DHT22;39919;38.160;-122.260;2023-07-16T00:08:01;31.40;50.70
54006;DHT22;39919;38.160;-122.260;2023-07-16T00:10:30;31.30;50.40
54006;DHT22;39919;38.160;-122.260;2023-07-16T00:13:03;31.30;50.30
54006;DHT22;39919;38.160;-122.260;2023-07-16T00:15:33;31.30;50.30
54006;DHT22;39919;38.160;-122.260;2023-07-16T00:18:02;31.30;50.90
54006;DHT22;39919;38.160;-122.260;2023-07-16T00:20:32;31.30;51.20
54006;DHT22;39919;38.160;-122.260;2023-07-16T00:23:02;31.20;51.30
54006;DHT22;39919;38.160;-122.260;2023-07-16T00:25:31;31.20;51.30
54006;DHT22;39919;38.160;-122.260;2023-07-16T00:28:03;31.20;51.50
54006;DHT22;39919;38.160;-122.260;2023-07-16T00:30:32;31.20;51.90
54006;DHT22;39919;38.160;-122.260;2023-07-16T00:33:02;31.20;51.80
54006;DHT22;39919;38.160;-122.260;2023-07-16T00:35:31;31.10;51.70
54006;DHT22;39919;38.160;-122.260;2023-07-16T00:38:00;31.10;51.90
54006;DHT22;39919;38.160;-122.260;2023-07-16T00:40:30;31.10;52.20
54006;DHT22;39919;38.160;-122.260;2023-07-16T00:42:59;31.10;52.30
54006;DHT22;39919;38.160;-122.260;2023-07-16T00:45:30;31.10;52.30
54006;DHT22;39919;38.160;-122.260;2023-07-16T00:47:59;31.00;52.30
54006;DHT22;39919;38.160;-122.260;2023-07-16T00:50:30;31.00;52.60
54006;DHT22;39919;38.160;-122.260;2023-07-16T00:53:01;31.00;52.70
54006;DHT22;39919;38.160;-122.260;2023-07-16T00:55:30;31.00;52.80
54006;DHT22;39919;38.160;-122.260;2023-07-16T00:58:02;30.90;52.60
54006;DHT22;39919;38.160;-122.260;2023-07-16T01:00:34;30.90;52.90
54006;DHT22;39919;38.160;-122.260;2023-07-16T01:03:08;30.80;53.10
54006;DHT22;39919;38.160;-122.260;2023-07-16T01:05:47;30.80;53.30
54006;DHT22;39919;38.160;-122.260;2023-07-16T01:08:28;30.80;53.30
54006;DHT22;39919;38.160;-122.260;2023-07-16T01:11:00;30.70;53.30
54006;DHT22;39919;38.160;-122.260;2023-07-16T01:13:30;30.70;53.40
54006;DHT22;39919;38.160;-122.260;2023-07-16T01:16:02;30.70;53.20
54006;DHT22;39919;38.160;-122.260;2023-07-16T01:18:31;30.60;53.00
54006;DHT22;39919;38.160;-122.260;2023-07-16T01:21:04;30.50;52.80
54006;DHT22;39919;38.160;-122.260;2023-07-16T01:24:11;30.50;52.90
54006;DHT22;39919;38.160;-122.260;2023-07-16T01:27:13;30.40;53.00
54006;DHT22;39919;38.160;-122.260;2023-07-16T01:29:47;30.30;53.20
54006;DHT22;39919;38.160;-122.260;2023-07-16T01:32:18;30.30;53.50
54006;DHT22;39919;38.160;-122.260;2023-07-16T01:34:49;30.20;53.40
54006;DHT22;39919;38.160;-122.260;2023-07-16T01:37:20;30.20;53.60
54006;DHT22;39919;38.160;-122.260;2023-07-16T01:39:53;30.10;53.60
54006;DHT22;39919;38.160;-122.260;2023-07-16T01:42:22;30.00;53.60
54006;DHT22;39919;38.160;-122.260;2023-07-16T01:44:53;30.00;53.90
54006;DHT22;39919;38.160;-122.260;2023-07-16T01:47:28;29.90;53.80
54006;DHT22;39919;38.160;-122.260;2023-07-16T01:50:01;29.80;53.70
54006;DHT22;39919;38.160;-122.260;2023-07-16T01:52:30;29.80;53.80
54006;DHT22;39919;38.160;-122.260;2023-07-16T01:54:59;29.70;53.90
54006;DHT22;39919;38.160;-122.260;2023-07-16T01:57:33;29.70;54.00
54006;DHT22;39919;38.160;-122.260;2023-07-16T02:00:05;29.60;54.00
54006;DHT22;39919;38.160;-122.260;2023-07-16T02:02:35;29.60;54.10
54006;DHT22;39919;38.160;-122.260;2023-07-16T02:05:05;29.60;54.20
54006;DHT22;39919;38.160;-122.260;2023-07-16T02:07:34;29.50;54.00
54006;DHT22;39919;38.160;-122.260;2023-07-16T02:10:06;29.50;54.10
54006;DHT22;39919;38.160;-122.260;2023-07-16T02:12:35;29.40;54.30
54006;DHT22;39919;38.160;-122.260;2023-07-16T02:15:07;29.40;54.30
54006;DHT22;39919;38.160;-122.260;2023-07-16T02:17:36;29.30;54.50
54006;DHT22;39919;38.160;-122.260;2023-07-16T02:20:06;29.20;54.50
54006;DHT22;39919;38.160;-122.260;2023-07-16T02:22:37;29.20;54.70
54006;DHT22;39919;38.160;-122.260;2023-07-16T02:25:07;29.20;54.80
54006;DHT22;39919;38.160;-122.260;2023-07-16T02:27:39;29.10;54.90
54006;DHT22;39919;38.160;-122.260;2023-07-16T02:30:11;29.10;55.00
54006;DHT22;39919;38.160;-122.260;2023-07-16T02:32:40;29.10;55.10
54006;DHT22;39919;38.160;-122.260;2023-07-16T02:35:10;29.00;55.20
54006;DHT22;39919;38.160;-122.260;2023-07-16T02:37:39;29.00;55.30
54006;DHT22;39919;38.160;-122.260;2023-07-16T02:40:10;29.00;55.40
54006;DHT22;39919;38.160;-122.260;2023-07-16T02:42:39;28.90;55.50
54006;DHT22;39919;38.160;-122.260;2023-07-16T02:45:11;28.90;55.70
54006;DHT22;39919;38.160;-122.260;2023-07-16T02:47:43;28.90;55.70
54006;DHT22;39919;38.160;-122.260;2023-07-16T02:50:12;28.80;55.60
54006;DHT22;39919;38.160;-122.260;2023-07-16T02:52:44;28.70;55.60
54006;DHT22;39919;38.160;-122.260;2023-07-16T02:55:14;28.70;55.60
54006;DHT22;39919;38.160;-122.260;2023-07-16T02:57:46;28.60;55.70
54006;DHT22;39919;38.160;-122.260;2023-07-16T03:00:17;28.50;55.90
54006;DHT22;39919;38.160;-122.260;2023-07-16T03:02:48;28.40;55.90
54006;DHT22;39919;38.160;-122.260;2023-07-16T03:05:20;28.40;56.10
54006;DHT22;39919;38.160;-122.260;2023-07-16T03:07:49;28.30;56.20
54006;DHT22;39919;38.160;-122.260;2023-07-16T03:10:24;28.30;56.30
54006;DHT22;39919;38.160;-122.260;2023-07-16T03:12:54;28.20;56.40
54006;DHT22;39919;38.160;-122.260;2023-07-16T03:15:25;28.10;56.50
54006;DHT22;39919;38.160;-122.260;2023-07-16T03:17:54;28.00;56.50
54006;DHT22;39919;38.160;-122.260;2023-07-16T03:20:23;27.90;56.50
54006;DHT22;39919;38.160;-122.260;2023-07-16T03:22:52;27.80;57.30
54006;DHT22;39919;38.160;-122.260;2023-07-16T03:25:21;27.70;57.00
54006;DHT22;39919;38.160;-122.260;2023-07-16T03:27:51;27.60;57.10
54006;DHT22;39919;38.160;-122.260;2023-07-16T03:30:20;27.50;57.20
54006;DHT22;39919;38.160;-122.260;2023-07-16T03:32:51;27.40;57.50
54006;DHT22;39919;38.160;-122.260;2023-07-16T03:35:20;27.30;57.40
54006;DHT22;39919;38.160;-122.260;2023-07-16T03:37:49;27.20;57.70
54006;DHT22;39919;38.160;-122.260;2023-07-16T03:40:21;27.10;57.80
54006;DHT22;39919;38.160;-122.260;2023-07-16T03:42:51;27.00;57.80
54006;DHT22;39919;38.160;-122.260;2023-07-16T03:45:20;26.90;58.10
54006;DHT22;39919;38.160;-122.260;2023-07-16T03:47:51;26.80;58.20
54006;DHT22;39919;38.160;-122.260;2023-07-16T03:50:20;26.70;58.30
54006;DHT22;39919;38.160;-122.260;2023-07-16T03:52:49;26.60;58.30
54006;DHT22;39919;38.160;-122.260;2023-07-16T03:55:19;26.50;58.40
54006;DHT22;39919;38.160;-122.260;2023-07-16T03:57:48;26.40;59.00
54006;DHT22;39919;38.160;-122.260;2023-07-16T04:00:17;26.30;59.00
54006;DHT22;39919;38.160;-122.260;2023-07-16T04:02:46;26.30;59.10
54006;DHT22;39919;38.160;-122.260;2023-07-16T04:05:20;26.10;59.00
54006;DHT22;39919;38.160;-122.260;2023-07-16T04:07:49;26.00;59.20
54006;DHT22;39919;38.160;-122.260;2023-07-16T04:10:18;26.00;60.00
54006;DHT22;39919;38.160;-122.260;2023-07-16T04:12:47;25.90;59.90
54006;DHT22;39919;38.160;-122.260;2023-07-16T04:15:16;25.80;59.90
54006;DHT22;39919;38.160;-122.260;2023-07-16T04:17:45;25.60;60.00
54006;DHT22;39919;38.160;-122.260;2023-07-16T04:20:17;25.60;60.40
54006;DHT22;39919;38.160;-122.260;2023-07-16T04:22:46;25.50;60.70
54006;DHT22;39919;38.160;-122.260;2023-07-16T04:25:17;25.40;61.30
54006;DHT22;39919;38.160;-122.260;2023-07-16T04:27:47;25.30;61.90
54006;DHT22;39919;38.160;-122.260;2023-07-16T04:30:16;25.20;62.00
54006;DHT22;39919;38.160;-122.260;2023-07-16T04:32:46;25.10;61.80
54006;DHT22;39919;38.160;-122.260;2023-07-16T04:35:16;25.00;61.60
54006;DHT22;39919;38.160;-122.260;2023-07-16T04:37:46;24.90;62.10
54006;DHT22;39919;38.160;-122.260;2023-07-16T04:40:15;24.80;63.10
54006;DHT22;39919;38.160;-122.260;2023-07-16T04:42:44;24.70;62.70
54006;DHT22;39919;38.160;-122.260;2023-07-16T04:45:13;24.70;63.30
54006;DHT22;39919;38.160;-122.260;2023-07-16T04:47:43;24.50;63.00
54006;DHT22;39919;38.160;-122.260;2023-07-16T04:50:12;24.50;62.90
54006;DHT22;39919;38.160;-122.260;2023-07-16T04:52:43;24.30;63.20
54006;DHT22;39919;38.160;-122.260;2023-07-16T04:55:15;24.30;63.80
54006;DHT22;39919;38.160;-122.260;2023-07-16T04:57:44;24.10;64.00
54006;DHT22;39919;38.160;-122.260;2023-07-16T05:00:14;24.10;64.20
54006;DHT22;39919;38.160;-122.260;2023-07-16T05:02:43;24.00;64.20
54006;DHT22;39919;38.160;-122.260;2023-07-16T05:05:12;23.80;64.40
54006;DHT22;39919;38.160;-122.260;2023-07-16T05:07:48;23.70;64.40
54006;DHT22;39919;38.160;-122.260;2023-07-16T05:10:20;23.60;64.50
54006;DHT22;39919;38.160;-122.260;2023-07-16T05:12:49;23.50;64.50
54006;DHT22;39919;38.160;-122.260;2023-07-16T05:15:19;23.40;64.50
54006;DHT22;39919;38.160;-122.260;2023-07-16T05:17:51;23.30;65.00
54006;DHT22;39919;38.160;-122.260;2023-07-16T05:20:21;23.20;65.20
54006;DHT22;39919;38.160;-122.260;2023-07-16T05:22:52;23.10;65.20
54006;DHT22;39919;38.160;-122.260;2023-07-16T05:25:22;23.00;65.50
54006;DHT22;39919;38.160;-122.260;2023-07-16T05:27:51;22.90;65.90
54006;DHT22;39919;38.160;-122.260;2023-07-16T05:30:20;22.80;65.90
54006;DHT22;39919;38.160;-122.260;2023-07-16T05:32:49;22.70;66.40
54006;DHT22;39919;38.160;-122.260;2023-07-16T05:35:22;22.60;66.50
54006;DHT22;39919;38.160;-122.260;2023-07-16T05:38:09;22.50;66.70
54006;DHT22;39919;38.160;-122.260;2023-07-16T05:40:38;22.40;67.30
54006;DHT22;39919;38.160;-122.260;2023-07-16T05:43:10;22.30;67.20
54006;DHT22;39919;38.160;-122.260;2023-07-16T05:45:40;22.20;67.10
54006;DHT22;39919;38.160;-122.260;2023-07-16T05:48:09;22.20;67.30
54006;DHT22;39919;38.160;-122.260;2023-07-16T05:50:43;22.10;67.10
54006;DHT22;39919;38.160;-122.260;2023-07-16T05:53:17;22.10;67.10
54006;DHT22;39919;38.160;-122.260;2023-07-16T05:55:49;22.00;67.10
54006;DHT22;39919;38.160;-122.260;2023-07-16T05:58:19;21.90;67.30
54006;DHT22;39919;38.160;-122.260;2023-07-16T06:00:48;21.80;67.20
54006;DHT22;39919;38.160;-122.260;2023-07-16T06:03:17;21.80;67.80
54006;DHT22;39919;38.160;-122.260;2023-07-16T06:05:46;21.70;69.20
54006;DHT22;39919;38.160;-122.260;2023-07-16T06:08:17;21.70;69.40
54006;DHT22;39919;38.160;-122.260;2023-07-16T06:10:49;21.60;69.50
54006;DHT22;39919;38.160;-122.260;2023-07-16T06:13:19;21.50;69.20
54006;DHT22;39919;38.160;-122.260;2023-07-16T06:15:48;21.40;68.80
54006;DHT22;39919;38.160;-122.260;2023-07-16T06:18:17;21.40;68.80
54006;DHT22;39919;38.160;-122.260;2023-07-16T06:20:47;21.40;69.60
54006;DHT22;39919;38.160;-122.260;2023-07-16T06:23:19;21.30;69.30
54006;DHT22;39919;38.160;-122.260;2023-07-16T06:25:48;21.20;69.10
54006;DHT22;39919;38.160;-122.260;2023-07-16T06:28:17;21.20;69.50
54006;DHT22;39919;38.160;-122.260;2023-07-16T06:30:46;21.20;71.10
54006;DHT22;39919;38.160;-122.260;2023-07-16T06:33:15;21.10;78.00
54006;DHT22;39919;38.160;-122.260;2023-07-16T06:35:45;21.10;81.30
54006;DHT22;39919;38.160;-122.260;2023-07-16T06:38:17;21.00;69.40
54006;DHT22;39919;38.160;-122.260;2023-07-16T06:40:47;21.00;69.20
54006;DHT22;39919;38.160;-122.260;2023-07-16T06:43:17;20.90;69.50
54006;DHT22;39919;38.160;-122.260;2023-07-16T06:45:48;20.90;69.70
54006;DHT22;39919;38.160;-122.260;2023-07-16T06:48:17;20.80;70.70
54006;DHT22;39919;38.160;-122.260;2023-07-16T06:50:54;20.70;71.10
54006;DHT22;39919;38.160;-122.260;2023-07-16T06:53:27;20.70;70.80
54006;DHT22;39919;38.160;-122.260;2023-07-16T06:55:56;20.70;78.50
54006;DHT22;39919;38.160;-122.260;2023-07-16T06:58:34;21.30;73.80
54006;DHT22;39919;38.160;-122.260;2023-07-16T07:01:03;20.50;90.70
54006;DHT22;39919;38.160;-122.260;2023-07-16T07:03:49;20.40;89.30
54006;DHT22;39919;38.160;-122.260;2023-07-16T07:06:18;20.30;80.10
54006;DHT22;39919;38.160;-122.260;2023-07-16T07:08:49;20.30;75.50
54006;DHT22;39919;38.160;-122.260;2023-07-16T07:11:21;20.10;70.60
54006;DHT22;39919;38.160;-122.260;2023-07-16T07:13:53;20.10;70.60
54006;DHT22;39919;38.160;-122.260;2023-07-16T07:16:24;20.00;71.20
54006;DHT22;39919;38.160;-122.260;2023-07-16T07:18:56;20.00;72.40
54006;DHT22;39919;38.160;-122.260;2023-07-16T07:21:28;19.90;72.90
54006;DHT22;39919;38.160;-122.260;2023-07-16T07:24:01;19.80;73.00
54006;DHT22;39919;38.160;-122.260;2023-07-16T07:26:32;19.80;73.20
54006;DHT22;39919;38.160;-122.260;2023-07-16T07:29:04;19.70;73.40
54006;DHT22;39919;38.160;-122.260;2023-07-16T07:31:34;19.70;74.00
54006;DHT22;39919;38.160;-122.260;2023-07-16T07:34:03;19.70;73.60
54006;DHT22;39919;38.160;-122.260;2023-07-16T07:36:35;19.60;73.40
54006;DHT22;39919;38.160;-122.260;2023-07-16T07:39:08;19.60;73.60
54006;DHT22;39919;38.160;-122.260;2023-07-16T07:41:37;19.50;75.00
54006;DHT22;39919;38.160;-122.260;2023-07-16T07:44:09;19.50;75.30
54006;DHT22;39919;38.160;-122.260;2023-07-16T07:46:38;19.40;75.20
54006;DHT22;39919;38.160;-122.260;2023-07-16T07:49:07;19.40;75.90
54006;DHT22;39919;38.160;-122.260;2023-07-16T07:51:38;19.40;76.00
54006;DHT22;39919;38.160;-122.260;2023-07-16T07:54:12;19.30;76.20
54006;DHT22;39919;38.160;-122.260;2023-07-16T07:56:42;19.20;76.10
54006;DHT22;39919;38.160;-122.260;2023-07-16T07:59:11;19.20;76.30
54006;DHT22;39919;38.160;-122.260;2023-07-16T08:01:43;19.10;75.80
54006;DHT22;39919;38.160;-122.260;2023-07-16T08:04:12;19.10;76.20
54006;DHT22;39919;38.160;-122.260;2023-07-16T08:06:41;19.00;76.40
54006;DHT22;39919;38.160;-122.260;2023-07-16T08:09:12;19.00;76.40
54006;DHT22;39919;38.160;-122.260;2023-07-16T08:11:41;18.90;76.20
54006;DHT22;39919;38.160;-122.260;2023-07-16T08:14:10;18.90;76.10
54006;DHT22;39919;38.160;-122.260;2023-07-16T08:16:39;18.90;76.20
54006;DHT22;39919;38.160;-122.260;2023-07-16T08:19:11;18.80;75.80
54006;DHT22;39919;38.160;-122.260;2023-07-16T08:21:40;18.80;75.40
54006;DHT22;39919;38.160;-122.260;2023-07-16T08:24:11;18.80;83.90
54006;DHT22;39919;38.160;-122.260;2023-07-16T08:26:45;18.80;76.40
54006;DHT22;39919;38.160;-122.260;2023-07-16T08:29:17;18.70;76.00
54006;DHT22;39919;38.160;-122.260;2023-07-16T08:31:46;18.70;86.10
54006;DHT22;39919;38.160;-122.260;2023-07-16T08:34:17;18.70;86.30
54006;DHT22;39919;38.160;-122.260;2023-07-16T08:36:48;18.60;86.00
54006;DHT22;39919;38.160;-122.260;2023-07-16T08:39:18;18.60;85.20
54006;DHT22;39919;38.160;-122.260;2023-07-16T08:42:05;18.50;84.30
54006;DHT22;39919;38.160;-122.260;2023-07-16T08:44:35;18.50;84.30
54006;DHT22;39919;38.160;-122.260;2023-07-16T08:47:06;18.50;85.50
54006;DHT22;39919;38.160;-122.260;2023-07-16T08:49:38;18.40;85.10
54006;DHT22;39919;38.160;-122.260;2023-07-16T08:52:10;18.40;86.20
54006;DHT22;39919;38.160;-122.260;2023-07-16T08:54:39;18.40;86.10
54006;DHT22;39919;38.160;-122.260;2023-07-16T08:57:13;18.30;84.70
54006;DHT22;39919;38.160;-122.260;2023-07-16T08:59:45;18.30;83.30
54006;DHT22;39919;38.160;-122.260;2023-07-16T09:02:18;18.30;77.80
54006;DHT22;39919;38.160;-122.260;2023-07-16T09:04:50;18.20;77.60
54006;DHT22;39919;38.160;-122.260;2023-07-16T09:07:22;18.20;77.20
54006;DHT22;39919;38.160;-122.260;2023-07-16T09:10:00;18.20;77.40
54006;DHT22;39919;38.160;-122.260;2023-07-16T09:12:30;18.20;77.10
54006;DHT22;39919;38.160;-122.260;2023-07-16T09:14:59;18.20;78.20
54006;DHT22;39919;38.160;-122.260;2023-07-16T09:17:31;18.20;81.00
54006;DHT22;39919;38.160;-122.260;2023-07-16T09:20:03;18.20;83.90
54006;DHT22;39919;38.160;-122.260;2023-07-16T09:22:40;18.20;84.60
54006;DHT22;39919;38.160;-122.260;2023-07-16T09:25:09;18.20;85.00
54006;DHT22;39919;38.160;-122.260;2023-07-16T09:27:40;18.10;86.50
54006;DHT22;39919;38.160;-122.260;2023-07-16T09:30:15;18.20;87.30
54006;DHT22;39919;38.160;-122.260;2023-07-16T09:32:44;18.10;87.60
54006;DHT22;39919;38.160;-122.260;2023-07-16T09:35:15;18.10;86.80
54006;DHT22;39919;38.160;-122.260;2023-07-16T09:37:45;18.10;87.10
54006;DHT22;39919;38.160;-122.260;2023-07-16T09:40:14;18.10;87.20
54006;DHT22;39919;38.160;-122.260;2023-07-16T09:42:47;18.10;87.40
54006;DHT22;39919;38.160;-122.260;2023-07-16T09:45:18;18.00;87.90
54006;DHT22;39919;38.160;-122.260;2023-07-16T09:47:48;18.00;88.30
54006;DHT22;39919;38.160;-122.260;2023-07-16T09:50:17;18.00;88.60
54006;DHT22;39919;38.160;-122.260;2023-07-16T09:52:48;18.00;89.30
54006;DHT22;39919;38.160;-122.260;2023-07-16T09:55:17;18.00;89.00
54006;DHT22;39919;38.160;-122.260;2023-07-16T09:57:50;18.00;88.70
54006;DHT22;39919;38.160;-122.260;2023-07-16T10:00:20;18.00;89.40
54006;DHT22;39919;38.160;-122.260;2023-07-16T10:02:53;18.00;89.20
54006;DHT22;39919;38.160;-122.260;2023-07-16T10:05:25;18.00;88.70
54006;DHT22;39919;38.160;-122.260;2023-07-16T10:07:55;17.90;88.40
54006;DHT22;39919;38.160;-122.260;2023-07-16T10:10:37;18.00;89.00
54006;DHT22;39919;38.160;-122.260;2023-07-16T10:13:11;18.00;88.90
54006;DHT22;39919;38.160;-122.260;2023-07-16T10:15:50;18.00;89.70
54006;DHT22;39919;38.160;-122.260;2023-07-16T10:18:29;18.00;90.00
54006;DHT22;39919;38.160;-122.260;2023-07-16T10:21:12;18.00;89.80
54006;DHT22;39919;38.160;-122.260;2023-07-16T10:23:41;17.90;89.30
54006;DHT22;39919;38.160;-122.260;2023-07-16T10:26:11;18.00;88.50
54006;DHT22;39919;38.160;-122.260;2023-07-16T10:28:42;17.90;88.60
54006;DHT22;39919;38.160;-122.260;2023-07-16T10:31:22;17.90;89.00
54006;DHT22;39919;38.160;-122.260;2023-07-16T10:34:01;18.00;89.50
54006;DHT22;39919;38.160;-122.260;2023-07-16T10:36:36;17.90;88.80
54006;DHT22;39919;38.160;-122.260;2023-07-16T10:39:05;17.90;88.80
54006;DHT22;39919;38.160;-122.260;2023-07-16T10:41:35;17.90;89.00
54006;DHT22;39919;38.160;-122.260;2023-07-16T10:44:08;17.90;89.10
54006;DHT22;39919;38.160;-122.260;2023-07-16T10:46:37;17.90;89.00
54006;DHT22;39919;38.160;-122.260;2023-07-16T10:49:06;17.80;88.60
54006;DHT22;39919;38.160;-122.260;2023-07-16T10:51:36;17.80;89.80
54006;DHT22;39919;38.160;-122.260;2023-07-16T10:54:05;17.80;89.40
54006;DHT22;39919;38.160;-122.260;2023-07-16T10:56:36;17.80;89.00
54006;DHT22;39919;38.160;-122.260;2023-07-16T10:59:10;17.80;89.10
54006;DHT22;39919;38.160;-122.260;2023-07-16T11:01:39;17.80;83.00
54006;DHT22;39919;38.160;-122.260;2023-07-16T11:04:09;17.70;79.30
54006;DHT22;39919;38.160;-122.260;2023-07-16T11:06:38;17.70;79.50
54006;DHT22;39919;38.160;-122.260;2023-07-16T11:09:08;17.70;80.40
54006;DHT22;39919;38.160;-122.260;2023-07-16T11:11:37;17.70;79.90
54006;DHT22;39919;38.160;-122.260;2023-07-16T11:14:09;17.60;79.50
54006;DHT22;39919;38.160;-122.260;2023-07-16T11:16:41;17.70;79.10
54006;DHT22;39919;38.160;-122.260;2023-07-16T11:19:10;17.60;79.10
54006;DHT22;39919;38.160;-122.260;2023-07-16T11:21:39;17.60;78.70
54006;DHT22;39919;38.160;-122.260;2023-07-16T11:24:09;17.60;78.50
54006;DHT22;39919;38.160;-122.260;2023-07-16T11:26:39;17.60;78.40
54006;DHT22;39919;38.160;-122.260;2023-07-16T11:29:16;17.60;79.90
54006;DHT22;39919;38.160;-122.260;2023-07-16T11:31:49;17.60;80.70
54006;DHT22;39919;38.160;-122.260;2023-07-16T11:34:23;17.60;81.30
54006;DHT22;39919;38.160;-122.260;2023-07-16T11:36:54;17.50;81.40
54006;DHT22;39919;38.160;-122.260;2023-07-16T11:39:28;17.50;81.40
54006;DHT22;39919;38.160;-122.260;2023-07-16T11:41:57;17.50;81.00
54006;DHT22;39919;38.160;-122.260;2023-07-16T11:44:34;17.50;80.40
54006;DHT22;39919;38.160;-122.260;2023-07-16T11:47:04;17.50;81.10
54006;DHT22;39919;38.160;-122.260;2023-07-16T11:49:36;17.50;81.70
54006;DHT22;39919;38.160;-122.260;2023-07-16T11:52:06;17.40;81.90
54006;DHT22;39919;38.160;-122.260;2023-07-16T11:54:36;17.40;82.00
54006;DHT22;39919;38.160;-122.260;2023-07-16T11:57:05;17.40;82.00
54006;DHT22;39919;38.160;-122.260;2023-07-16T11:59:36;17.40;82.10
54006;DHT22;39919;38.160;-122.260;2023-07-16T12:02:05;17.40;82.40
54006;DHT22;39919;38.160;-122.260;2023-07-16T12:04:37;17.40;82.60
54006;DHT22;39919;38.160;-122.260;2023-07-16T12:07:10;17.40;82.70
54006;DHT22;39919;38.160;-122.260;2023-07-16T12:09:39;17.40;82.70
54006;DHT22;39919;38.160;-122.260;2023-07-16T12:12:08;17.40;82.80
54006;DHT22;39919;38.160;-122.260;2023-07-16T12:14:39;17.30;82.80
54006;DHT22;39919;38.160;-122.260;2023-07-16T12:17:08;17.30;82.80
54006;DHT22;39919;38.160;-122.260;2023-07-16T12:19:37;17.30;83.30
54006;DHT22;39919;38.160;-122.260;2023-07-16T12:22:07;17.30;83.40
54006;DHT22;39919;38.160;-122.260;2023-07-16T12:24:36;17.30;83.50
54006;DHT22;39919;38.160;-122.260;2023-07-16T12:27:08;17.30;83.30
54006;DHT22;39919;38.160;-122.260;2023-07-16T12:29:39;17.30;83.60
54006;DHT22;39919;38.160;-122.260;2023-07-16T12:32:08;17.30;83.40
54006;DHT22;39919;38.160;-122.260;2023-07-16T12:34:38;17.30;82.90
54006;DHT22;39919;38.160;-122.260;2023-07-16T12:37:07;17.20;82.80
54006;DHT22;39919;38.160;-122.260;2023-07-16T12:39:36;17.30;83.30
54006;DHT22;39919;38.160;-122.260;2023-07-16T12:42:06;17.20;83.00
54006;DHT22;39919;38.160;-122.260;2023-07-16T12:44:35;17.20;82.60
54006;DHT22;39919;38.160;-122.260;2023-07-16T12:47:08;17.20;83.10
54006;DHT22;39919;38.160;-122.260;2023-07-16T12:49:37;17.20;83.00
54006;DHT22;39919;38.160;-122.260;2023-07-16T12:52:06;17.20;83.60
54006;DHT22;39919;38.160;-122.260;2023-07-16T12:54:36;17.30;84.50
54006;DHT22;39919;38.160;-122.260;2023-07-16T12:57:06;17.20;84.30
54006;DHT22;39919;38.160;-122.260;2023-07-16T12:59:35;17.20;84.50
54006;DHT22;39919;38.160;-122.260;2023-07-16T13:02:06;17.20;84.30
54006;DHT22;39919;38.160;-122.260;2023-07-16T13:04:35;17.20;84.00
54006;DHT22;39919;38.160;-122.260;2023-07-16T13:07:05;17.20;83.50
54006;DHT22;39919;38.160;-122.260;2023-07-16T13:09:35;17.20;83.20
54006;DHT22;39919;38.160;-122.260;2023-07-16T13:12:05;17.20;83.40
54006;DHT22;39919;38.160;-122.260;2023-07-16T13:14:34;17.20;83.40
54006;DHT22;39919;38.160;-122.260;2023-07-16T13:17:03;17.20;82.90
54006;DHT22;39919;38.160;-122.260;2023-07-16T13:19:37;17.20;82.50
54006;DHT22;39919;38.160;-122.260;2023-07-16T13:22:06;17.20;82.70
54006;DHT22;39919;38.160;-122.260;2023-07-16T13:24:35;17.20;82.70
54006;DHT22;39919;38.160;-122.260;2023-07-16T13:27:04;17.20;83.40
54006;DHT22;39919;38.160;-122.260;2023-07-16T13:29:33;17.20;83.60
54006;DHT22;39919;38.160;-122.260;2023-07-16T13:32:06;17.20;83.20
54006;DHT22;39919;38.160;-122.260;2023-07-16T13:34:37;17.30;82.90
54006;DHT22;39919;38.160;-122.260;2023-07-16T13:37:06;17.30;82.80
54006;DHT22;39919;38.160;-122.260;2023-07-16T13:39:35;17.30;83.00
54006;DHT22;39919;38.160;-122.260;2023-07-16T13:42:05;17.30;83.30
54006;DHT22;39919;38.160;-122.260;2023-07-16T13:44:34;17.30;83.20
54006;DHT22;39919;38.160;-122.260;2023-07-16T13:47:04;17.40;82.90
54006;DHT22;39919;38.160;-122.260;2023-07-16T13:49:35;17.40;83.30
54006;DHT22;39919;38.160;-122.260;2023-07-16T13:52:10;17.40;83.50
54006;DHT22;39919;38.160;-122.260;2023-07-16T13:54:39;17.50;84.30
54006;DHT22;39919;38.160;-122.260;2023-07-16T13:57:08;17.50;84.50
54006;DHT22;39919;38.160;-122.260;2023-07-16T13:59:37;17.60;85.70
54006;DHT22;39919;38.160;-122.260;2023-07-16T14:02:07;17.70;85.00
54006;DHT22;39919;38.160;-122.260;2023-07-16T14:04:36;17.70;84.50
54006;DHT22;39919;38.160;-122.260;2023-07-16T14:07:07;17.80;84.30
54006;DHT22;39919;38.160;-122.260;2023-07-16T14:09:38;17.80;84.40
54006;DHT22;39919;38.160;-122.260;2023-07-16T14:12:07;17.90;84.20
54006;DHT22;39919;38.160;-122.260;2023-07-16T14:14:36;18.10;84.50
54006;DHT22;39919;38.160;-122.260;2023-07-16T14:17:06;18.10;84.50
54006;DHT22;39919;38.160;-122.260;2023-07-16T14:19:35;18.20;84.10
54006;DHT22;39919;38.160;-122.260;2023-07-16T14:22:04;18.30;84.20
54006;DHT22;39919;38.160;-122.260;2023-07-16T14:24:35;18.40;83.80
54006;DHT22;39919;38.160;-122.260;2023-07-16T14:27:07;18.50;84.10
54006;DHT22;39919;38.160;-122.260;2023-07-16T14:29:37;18.60;83.80
54006;DHT22;39919;38.160;-122.260;2023-07-16T14:32:08;18.70;83.40
54006;DHT22;39919;38.160;-122.260;2023-07-16T14:34:38;18.80;83.30
54006;DHT22;39919;38.160;-122.260;2023-07-16T14:37:09;19.00;83.30
54006;DHT22;39919;38.160;-122.260;2023-07-16T14:39:43;19.10;83.50
54006;DHT22;39919;38.160;-122.260;2023-07-16T14:42:12;19.20;83.00
54006;DHT22;39919;38.160;-122.260;2023-07-16T14:44:41;19.30;83.10
54006;DHT22;39919;38.160;-122.260;2023-07-16T14:47:10;19.50;83.20
54006;DHT22;39919;38.160;-122.260;2023-07-16T14:49:39;19.70;83.50
54006;DHT22;39919;38.160;-122.260;2023-07-16T14:52:08;19.80;84.00
54006;DHT22;39919;38.160;-122.260;2023-07-16T14:54:42;20.00;84.90
54006;DHT22;39919;38.160;-122.260;2023-07-16T14:57:12;20.30;85.70
54006;DHT22;39919;38.160;-122.260;2023-07-16T14:59:41;20.70;89.20
54006;DHT22;39919;38.160;-122.260;2023-07-16T15:02:10;21.20;91.00
54006;DHT22;39919;38.160;-122.260;2023-07-16T15:04:45;21.90;88.30
54006;DHT22;39919;38.160;-122.260;2023-07-16T15:07:17;22.60;87.50
54006;DHT22;39919;38.160;-122.260;2023-07-16T15:09:48;23.50;83.40